sensor_id;sensor_type;location;lat;lon;timestamp;pressure;altitude;pressure_sealevel;temperature;humidity
11001;BME280;5553;48.506;8.870;2022-10-23T00:01:44;96858.09;;;7.52;100.00
11001;BME280;5553;48.506;8.870;2022-10-23T00:04:14;96853.50;;;7.62;100.00
11001;BME280;5553;48.506;8.870;2022-10-23T00:06:43;96850.72;;;7.72;100.00
11001;BME280;5553;48.506;8.870;2022-10-23T00:09:14;96849.41;;;7.76;100.00
11001;BME280;5553;48.506;8.870;2022-10-23T00:11:46;96844.84;;;7.70;100.00
11001;BME280;5553;48.506;8.870;2022-10-23T00:14:17;96842.03;;;7.63;100.00
11001;BME280;5553;48.506;8.870;2022-10-23T00:16:45;96849.75;;;7.56;100.00
11001;BME280;5553;48.506;8.870;2022-10-23T00:19:13;96842.22;;;7.53;100.00
11001;BME280;5553;48.506;8.870;2022-10-23T00:21:42;96844.50;;;7.56;100.00
11001;BME280;5553;48.506;8.870;2022-10-23T00:24:10;96844.34;;;7.50;100.00
11001;BME280;5553;48.506;8.870;2022-10-23T00:26:39;96850.09;;;7.53;100.00
11001;BME280;5553;48.506;8.870;2022-10-23T00:29:10;96854.00;;;7.66;100.00
11001;BME280;5553;48.506;8.870;2022-10-23T00:31:39;96856.16;;;7.70;100.00
11001;BME280;5553;48.506;8.870;2022-10-23T00:34:07;96860.41;;;7.71;100.00
11001;BME280;5553;48.506;8.870;2022-10-23T00:36:35;96864.88;;;7.63;100.00
11001;BME280;5553;48.506;8.870;2022-10-23T00:39:04;96865.34;;;7.58;100.00
11001;BME280;5553;48.506;8.870;2022-10-23T00:41:33;96866.66;;;7.70;100.00
11001;BME280;5553;48.506;8.870;2022-10-23T00:44:06;96859.28;;;7.74;100.00
11001;BME280;5553;48.506;8.870;2022-10-23T00:46:38;96882.25;;;7.64;100.00
11001;BME280;5553;48.506;8.870;2022-10-23T00:49:07;96874.03;;;7.58;100.00
11001;BME280;5553;48.506;8.870;2022-10-23T00:51:40;96877.66;;;7.57;100.00
11001;BME280;5553;48.506;8.870;2022-10-23T00:54:10;96869.44;;;7.69;100.00
11001;BME280;5553;48.506;8.870;2022-10-23T00:56:41;96881.59;;;7.70;100.00
11001;BME280;5553;48.506;8.870;2022-10-23T00:59:11;96864.69;;;7.72;100.00
11001;BME280;5553;48.506;8.870;2022-10-23T01:01:42;96864.19;;;7.69;100.00
11001;BME280;5553;48.506;8.870;2022-10-23T01:04:11;96865.34;;;7.66;100.00
11001;BME280;5553;48.506;8.870;2022-10-23T01:06:43;96865.84;;;7.78;100.00
11001;BME280;5553;48.506;8.870;2022-10-23T01:09:18;96870.78;;;7.73;100.00
11001;BME280;5553;48.506;8.870;2022-10-23T01:11:52;96867.63;;;7.45;100.00
11001;BME280;5553;48.506;8.870;2022-10-23T01:14:26;96860.06;;;7.33;100.00
11001;BME280;5553;48.506;8.870;2022-10-23T01:17:05;96869.13;;;7.39;100.00
11001;BME280;5553;48.506;8.870;2022-10-23T01:19:50;96856.94;;;7.38;100.00
11001;BME280;5553;48.506;8.870;2022-10-23T01:22:42;96857.63;;;7.40;100.00
11001;BME280;5553;48.506;8.870;2022-10-23T01:25:25;96849.41;;;7.43;100.00
11001;BME280;5553;48.506;8.870;2022-10-23T01:28:00;96837.13;;;7.35;100.00
11001;BME280;5553;48.506;8.870;2022-10-23T01:30:32;96855.31;;;7.29;100.00
11001;BME280;5553;48.506;8.870;2022-10-23T01:33:05;96851.69;;;7.30;100.00
11001;BME280;5553;48.506;8.870;2022-10-23T01:35:40;96847.94;;;7.32;100.00
11001;BME280;5553;48.506;8.870;2022-10-23T01:38:12;96840.38;;;7.38;100.00
11001;BME280;5553;48.506;8.870;2022-10-23T01:40:44;96839.25;;;7.40;100.00
11001;BME280;5553;48.506;8.870;2022-10-23T01:43:20;96849.91;;;7.39;100.00
11001;BME280;5553;48.506;8.870;2022-10-23T01:45:55;96844.81;;;7.29;100.00
11001;BME280;5553;48.506;8.870;2022-10-23T01:48:27;96853.16;;;7.24;100.00
11001;BME280;5553;48.506;8.870;2022-10-23T01:50:58;96856.97;;;7.22;100.00
11001;BME280;5553;48.506;8.870;2022-10-23T01:53:29;96846.63;;;7.28;100.00
11001;BME280;5553;48.506;8.870;2022-10-23T01:56:02;96841.53;;;7.27;100.00
11001;BME280;5553;48.506;8.870;2022-10-23T01:58:36;96841.88;;;7.32;100.00
11001;BME280;5553;48.506;8.870;2022-10-23T02:01:06;96840.88;;;7.25;100.00
11001;BME280;5553;48.506;8.870;2022-10-23T02:03:36;96845.47;;;7.31;100.00
11001;BME280;5553;48.506;8.870;2022-10-23T02:06:06;96844.19;;;7.35;100.00
11001;BME280;5553;48.506;8.870;2022-10-23T02:08:35;96844.34;;;7.25;100.00
11001;BME280;5553;48.506;8.870;2022-10-23T02:11:07;96840.53;;;7.20;100.00
11001;BME280;5553;48.506;8.870;2022-10-23T02:13:43;96836.09;;;7.12;100.00
11001;BME280;5553;48.506;8.870;2022-10-23T02:16:19;96830.03;;;7.11;100.00
11001;BME280;5553;48.506;8.870;2022-10-23T02:18:54;96827.75;;;7.17;100.00
11001;BME280;5553;48.506;8.870;2022-10-23T02:21:29;96834.63;;;7.18;100.00
11001;BME280;5553;48.506;8.870;2022-10-23T02:24:00;96841.72;;;7.25;100.00
11001;BME280;5553;48.506;8.870;2022-10-23T02:26:34;96837.59;;;7.23;100.00
11001;BME280;5553;48.506;8.870;2022-10-23T02:29:11;96825.16;;;7.25;100.00
11001;BME280;5553;48.506;8.870;2022-10-23T02:31:41;96827.75;;;7.33;100.00
11001;BME280;5553;48.506;8.870;2022-10-23T02:34:10;96828.25;;;7.36;100.00
11001;BME280;5553;48.506;8.870;2022-10-23T02:36:39;96816.94;;;7.36;100.00
11001;BME280;5553;48.506;8.870;2022-10-23T02:39:08;96821.38;;;7.44;100.00
11001;BME280;5553;48.506;8.870;2022-10-23T02:41:41;96813.00;;;7.40;100.00
11001;BME280;5553;48.506;8.870;2022-10-23T02:44:24;96813.00;;;7.32;100.00
11001;BME280;5553;48.506;8.870;2022-10-23T02:47:03;96812.81;;;7.17;100.00
11001;BME280;5553;48.506;8.870;2022-10-23T02:49:38;96809.22;;;7.18;100.00
11001;BME280;5553;48.506;8.870;2022-10-23T02:52:13;96815.59;;;7.16;100.00
11001;BME280;5553;48.506;8.870;2022-10-23T02:54:55;96813.63;;;7.18;100.00
11001;BME280;5553;48.506;8.870;2022-10-23T02:57:31;96810.69;;;7.29;100.00
11001;BME280;5553;48.506;8.870;2022-10-23T03:00:06;96811.19;;;7.24;100.00
11001;BME280;5553;48.506;8.870;2022-10-23T03:02:38;96816.25;;;7.18;100.00
11001;BME280;5553;48.506;8.870;2022-10-23T03:05:09;96815.13;;;7.12;100.00
11001;BME280;5553;48.506;8.870;2022-10-23T03:07:38;96816.59;;;7.15;100.00
11001;BME280;5553;48.506;8.870;2022-10-23T03:10:08;96819.06;;;7.08;100.00
11001;BME280;5553;48.506;8.870;2022-10-23T03:12:37;96821.69;;;7.16;100.00
11001;BME280;5553;48.506;8.870;2022-10-23T03:15:09;96828.41;;;7.19;100.00
11001;BME280;5553;48.506;8.870;2022-10-23T03:17:38;96818.22;;;7.16;100.00
11001;BME280;5553;48.506;8.870;2022-10-23T03:20:08;96819.22;;;7.23;100.00
11001;BME280;5553;48.506;8.870;2022-10-23T03:22:37;96818.56;;;7.21;100.00
11001;BME280;5553;48.506;8.870;2022-10-23T03:25:07;96816.91;;;7.20;100.00
11001;BME280;5553;48.506;8.870;2022-10-23T03:27:35;96814.66;;;7.25;100.00
11001;BME280;5553;48.506;8.870;2022-10-23T03:30:08;96816.59;;;7.23;100.00
11001;BME280;5553;48.506;8.870;2022-10-23T03:32:36;96816.91;;;7.20;100.00
11001;BME280;5553;48.506;8.870;2022-10-23T03:35:05;96810.50;;;7.14;100.00
11001;BME280;5553;48.506;8.870;2022-10-23T03:37:34;96808.56;;;7.16;100.00
11001;BME280;5553;48.506;8.870;2022-10-23T03:40:03;96810.69;;;7.21;100.00
11001;BME280;5553;48.506;8.870;2022-10-23T03:42:31;96801.97;;;7.04;100.00
11001;BME280;5553;48.506;8.870;2022-10-23T03:44:59;96798.53;;;7.03;100.00
11001;BME280;5553;48.506;8.870;2022-10-23T03:47:30;96796.72;;;6.96;100.00
11001;BME280;5553;48.506;8.870;2022-10-23T03:50:00;96793.91;;;6.89;100.00
11001;BME280;5553;48.506;8.870;2022-10-23T03:52:28;96799.66;;;6.93;100.00
11001;BME280;5553;48.506;8.870;2022-10-23T03:54:56;96792.59;;;6.85;100.00
11001;BME280;5553;48.506;8.870;2022-10-23T03:57:25;96786.69;;;6.75;100.00
11001;BME280;5553;48.506;8.870;2022-10-23T03:59:53;96793.56;;;6.68;100.00
11001;BME280;5553;48.506;8.870;2022-10-23T04:02:22;96793.38;;;6.69;100.00
11001;BME280;5553;48.506;8.870;2022-10-23T04:04:52;96796.81;;;6.70;100.00
11001;BME280;5553;48.506;8.870;2022-10-23T04:07:21;96796.81;;;6.70;100.00
11001;BME280;5553;48.506;8.870;2022-10-23T04:09:49;96795.19;;;6.77;100.00
11001;BME280;5553;48.506;8.870;2022-10-23T04:12:18;96804.72;;;6.86;100.00
11001;BME280;5553;48.506;8.870;2022-10-23T04:14:46;96804.72;;;6.86;100.00
11001;BME280;5553;48.506;8.870;2022-10-23T04:17:14;96810.00;;;6.94;100.00
11001;BME280;5553;48.506;8.870;2022-10-23T04:19:43;96813.94;;;6.98;100.00
11001;BME280;5553;48.506;8.870;2022-10-23T04:22:13;96806.06;;;7.06;100.00
11001;BME280;5553;48.506;8.870;2022-10-23T04:24:42;96814.44;;;7.10;100.00
11001;BME280;5553;48.506;8.870;2022-10-23T04:27:12;96832.34;;;7.15;100.00
11001;BME280;5553;48.506;8.870;2022-10-23T04:29:41;96826.09;;;7.16;100.00
11001;BME280;5553;48.506;8.870;2022-10-23T04:32:09;96829.72;;;7.15;100.00
11001;BME280;5553;48.506;8.870;2022-10-23T04:34:37;96820.69;;;7.09;100.00
11001;BME280;5553;48.506;8.870;2022-10-23T04:37:06;96828.72;;;7.16;100.00
11001;BME280;5553;48.506;8.870;2022-10-23T04:39:36;96832.66;;;7.20;100.00
11001;BME280;5553;48.506;8.870;2022-10-23T04:42:05;96826.44;;;7.12;100.00
11001;BME280;5553;48.506;8.870;2022-10-23T04:44:33;96826.25;;;7.14;100.00
11001;BME280;5553;48.506;8.870;2022-10-23T04:47:01;96821.50;;;7.09;100.00
11001;BME280;5553;48.506;8.870;2022-10-23T04:49:30;96832.81;;;7.10;100.00
11001;BME280;5553;48.506;8.870;2022-10-23T04:51:58;96823.13;;;7.10;100.00
11001;BME280;5553;48.506;8.870;2022-10-23T04:54:26;96831.19;;;7.17;100.00
11001;BME280;5553;48.506;8.870;2022-10-23T04:56:57;96834.97;;;7.15;100.00
11001;BME280;5553;48.506;8.870;2022-10-23T04:59:25;96822.97;;;7.20;100.00
11001;BME280;5553;48.506;8.870;2022-10-23T05:01:54;96830.72;;;7.22;100.00
11001;BME280;5553;48.506;8.870;2022-10-23T05:04:22;96821.34;;;7.19;100.00
11001;BME280;5553;48.506;8.870;2022-10-23T05:06:50;96829.38;;;7.18;100.00
11001;BME280;5553;48.506;8.870;2022-10-23T05:09:18;96819.38;;;7.13;100.00
11001;BME280;5553;48.506;8.870;2022-10-23T05:11:47;96813.13;;;7.14;100.00
11001;BME280;5553;48.506;8.870;2022-10-23T05:14:18;96823.81;;;7.21;100.00
11001;BME280;5553;48.506;8.870;2022-10-23T05:16:50;96822.84;;;7.30;100.00
11001;BME280;5553;48.506;8.870;2022-10-23T05:19:24;96820.03;;;7.23;100.00
11001;BME280;5553;48.506;8.870;2022-10-23T05:21:54;96815.59;;;7.24;100.00
11001;BME280;5553;48.506;8.870;2022-10-23T05:24:25;96813.00;;;7.32;100.00
11001;BME280;5553;48.506;8.870;2022-10-23T05:26:53;96813.66;;;7.34;100.00
11001;BME280;5553;48.506;8.870;2022-10-23T05:29:24;96815.94;;;7.37;100.00
11001;BME280;5553;48.506;8.870;2022-10-23T05:31:54;96826.78;;;7.34;100.00
11001;BME280;5553;48.506;8.870;2022-10-23T05:34:25;96819.56;;;7.44;100.00
11001;BME280;5553;48.506;8.870;2022-10-23T05:36:54;96811.34;;;7.47;100.00
11001;BME280;5553;48.506;8.870;2022-10-23T05:39:23;96804.28;;;7.48;100.00
11001;BME280;5553;48.506;8.870;2022-10-23T05:41:51;96808.91;;;7.46;100.00
11001;BME280;5553;48.506;8.870;2022-10-23T05:44:20;96808.06;;;7.45;100.00
11001;BME280;5553;48.506;8.870;2022-10-23T05:46:50;96806.44;;;7.36;100.00
11001;BME280;5553;48.506;8.870;2022-10-23T05:49:19;96812.34;;;7.30;100.00
11001;BME280;5553;48.506;8.870;2022-10-23T05:51:47;96808.72;;;7.31;100.00
11001;BME280;5553;48.506;8.870;2022-10-23T05:54:15;96802.34;;;7.25;100.00
11001;BME280;5553;48.506;8.870;2022-10-23T05:56:44;96802.50;;;7.40;100.00
11001;BME280;5553;48.506;8.870;2022-10-23T05:59:12;96799.06;;;7.40;100.00
11001;BME280;5553;48.506;8.870;2022-10-23T06:01:40;96794.94;;;7.45;100.00
11001;BME280;5553;48.506;8.870;2022-10-23T06:04:11;96799.53;;;7.51;100.00
11001;BME280;5553;48.506;8.870;2022-10-23T06:06:40;96799.03;;;7.48;100.00
11001;BME280;5553;48.506;8.870;2022-10-23T06:09:08;96804.44;;;7.38;100.00
11001;BME280;5553;48.506;8.870;2022-10-23T06:11:36;96800.22;;;7.29;100.00
11001;BME280;5553;48.506;8.870;2022-10-23T06:14:05;96806.75;;;7.33;100.00
11001;BME280;5553;48.506;8.870;2022-10-23T06:16:33;96798.41;;;7.29;100.00
11001;BME280;5553;48.506;8.870;2022-10-23T06:19:01;96793.47;;;7.34;100.00
11001;BME280;5553;48.506;8.870;2022-10-23T06:21:35;96800.19;;;7.37;100.00
11001;BME280;5553;48.506;8.870;2022-10-23T06:24:04;96814.28;;;7.28;100.00
11001;BME280;5553;48.506;8.870;2022-10-23T06:26:33;96802.31;;;7.42;100.00
11001;BME280;5553;48.506;8.870;2022-10-23T06:29:01;96805.09;;;7.48;100.00
11001;BME280;5553;48.506;8.870;2022-10-23T06:31:30;96807.09;;;7.63;100.00
11001;BME280;5553;48.506;8.870;2022-10-23T06:33:58;96793.44;;;7.75;100.00
11001;BME280;5553;48.506;8.870;2022-10-23T06:36:27;96805.09;;;7.81;100.00
11001;BME280;5553;48.506;8.870;2022-10-23T06:38:58;96807.22;;;7.94;100.00
11001;BME280;5553;48.506;8.870;2022-10-23T06:41:26;96796.38;;;7.97;100.00
11001;BME280;5553;48.506;8.870;2022-10-23T06:43:54;96800.63;;;7.98;100.00
11001;BME280;5553;48.506;8.870;2022-10-23T06:46:23;96802.09;;;8.00;100.00
11001;BME280;5553;48.506;8.870;2022-10-23T06:48:52;96805.03;;;8.14;100.00
11001;BME280;5553;48.506;8.870;2022-10-23T06:51:21;96808.28;;;8.16;100.00
11001;BME280;5553;48.506;8.870;2022-10-23T06:53:53;96810.75;;;8.17;100.00
11001;BME280;5553;48.506;8.870;2022-10-23T06:56:24;96803.63;;;8.34;100.00
11001;BME280;5553;48.506;8.870;2022-10-23T06:58:54;96800.34;;;8.40;100.00
11001;BME280;5553;48.506;8.870;2022-10-23T07:01:23;96808.84;;;8.59;100.00
11001;BME280;5553;48.506;8.870;2022-10-23T07:03:51;96801.03;;;8.73;100.00
11001;BME280;5553;48.506;8.870;2022-10-23T07:06:20;96794.19;;;8.87;100.00
11001;BME280;5553;48.506;8.870;2022-10-23T07:08:48;96785.75;;;9.00;100.00
11001;BME280;5553;48.506;8.870;2022-10-23T07:11:16;96776.38;;;8.97;100.00
11001;BME280;5553;48.506;8.870;2022-10-23T07:13:47;96757.88;;;9.06;100.00
11001;BME280;5553;48.506;8.870;2022-10-23T07:16:17;96758.25;;;9.02;100.00
11001;BME280;5553;48.506;8.870;2022-10-23T07:18:47;96737.50;;;9.08;100.00
11001;BME280;5553;48.506;8.870;2022-10-23T07:21:16;96727.25;;;9.13;100.00
11001;BME280;5553;48.506;8.870;2022-10-23T07:23:44;96741.28;;;9.28;100.00
11001;BME280;5553;48.506;8.870;2022-10-23T07:26:14;96721.03;;;9.43;100.00
11001;BME280;5553;48.506;8.870;2022-10-23T07:28:43;96718.34;;;9.52;100.00
11001;BME280;5553;48.506;8.870;2022-10-23T07:31:15;96698.19;;;9.73;100.00
11001;BME280;5553;48.506;8.870;2022-10-23T07:33:43;96687.03;;;9.86;100.00
11001;BME280;5553;48.506;8.870;2022-10-23T07:36:11;96675.22;;;9.82;100.00
11001;BME280;5553;48.506;8.870;2022-10-23T07:38:40;96660.72;;;10.37;100.00
11001;BME280;5553;48.506;8.870;2022-10-23T07:41:08;96633.59;;;10.65;100.00
11001;BME280;5553;48.506;8.870;2022-10-23T07:43:37;96620.19;;;10.66;100.00
11001;BME280;5553;48.506;8.870;2022-10-23T07:46:05;96599.09;;;10.66;100.00
11001;BME280;5553;48.506;8.870;2022-10-23T07:48:38;96584.25;;;10.87;100.00
11001;BME280;5553;48.506;8.870;2022-10-23T07:51:10;96567.75;;;11.06;100.00
11001;BME280;5553;48.506;8.870;2022-10-23T07:53:41;96562.22;;;11.29;100.00
11001;BME280;5553;48.506;8.870;2022-10-23T07:56:12;96528.59;;;11.58;100.00
11001;BME280;5553;48.506;8.870;2022-10-23T07:58:42;96516.41;;;12.05;100.00
11001;BME280;5553;48.506;8.870;2022-10-23T08:01:15;96492.59;;;12.85;100.00
11001;BME280;5553;48.506;8.870;2022-10-23T08:03:47;96453.13;;;12.63;100.00
11001;BME280;5553;48.506;8.870;2022-10-23T08:06:16;96436.63;;;13.46;100.00
11001;BME280;5553;48.506;8.870;2022-10-23T08:08:44;96418.19;;;13.96;100.00
11001;BME280;5553;48.506;8.870;2022-10-23T08:11:14;96399.72;;;13.51;100.00
11001;BME280;5553;48.506;8.870;2022-10-23T08:13:44;96400.97;;;12.84;100.00
11001;BME280;5553;48.506;8.870;2022-10-23T08:16:12;96392.88;;;12.72;100.00
11001;BME280;5553;48.506;8.870;2022-10-23T08:18:41;96392.88;;;12.65;100.00
11001;BME280;5553;48.506;8.870;2022-10-23T08:21:12;96409.19;;;12.36;100.00
11001;BME280;5553;48.506;8.870;2022-10-23T08:23:40;96412.66;;;12.29;100.00
11001;BME280;5553;48.506;8.870;2022-10-23T08:26:09;96413.84;;;12.53;100.00
11001;BME280;5553;48.506;8.870;2022-10-23T08:28:38;96422.03;;;12.12;100.00
11001;BME280;5553;48.506;8.870;2022-10-23T08:31:07;96420.59;;;12.16;100.00
11001;BME280;5553;48.506;8.870;2022-10-23T08:33:36;96409.75;;;12.64;100.00
11001;BME280;5553;48.506;8.870;2022-10-23T08:36:12;96400.28;;;13.08;100.00
11001;BME280;5553;48.506;8.870;2022-10-23T08:38:46;96401.53;;;12.99;100.00
11001;BME280;5553;48.506;8.870;2022-10-23T08:41:23;96403.88;;;13.34;100.00
11001;BME280;5553;48.506;8.870;2022-10-23T08:43:56;96404.41;;;14.12;100.00
11001;BME280;5553;48.506;8.870;2022-10-23T08:46:30;96386.03;;;13.86;100.00
11001;BME280;5553;48.506;8.870;2022-10-23T08:49:14;96387.13;;;14.28;100.00
11001;BME280;5553;48.506;8.870;2022-10-23T08:51:46;96378.84;;;14.68;100.00
11001;BME280;5553;48.506;8.870;2022-10-23T08:54:20;96371.28;;;15.20;100.00
11001;BME280;5553;48.506;8.870;2022-10-23T08:56:53;96359.25;;;15.17;100.00
11001;BME280;5553;48.506;8.870;2022-10-23T08:59:26;96346.56;;;15.20;100.00
11001;BME280;5553;48.506;8.870;2022-10-23T09:02:00;96363.84;;;15.59;100.00
11001;BME280;5553;48.506;8.870;2022-10-23T09:04:30;96363.50;;;15.37;100.00
11001;BME280;5553;48.506;8.870;2022-10-23T09:07:07;96366.06;;;16.04;100.00
11001;BME280;5553;48.506;8.870;2022-10-23T09:09:54;96349.97;;;16.69;100.00
11001;BME280;5553;48.506;8.870;2022-10-23T09:12:28;96355.50;;;15.97;100.00
11001;BME280;5553;48.506;8.870;2022-10-23T09:15:11;96325.34;;;18.22;100.00
11001;BME280;5553;48.506;8.870;2022-10-23T09:17:42;96308.63;;;17.19;100.00
11001;BME280;5553;48.506;8.870;2022-10-23T09:20:17;96298.69;;;17.60;97.94
11001;BME280;5553;48.506;8.870;2022-10-23T09:22:46;96292.06;;;18.46;93.87
11001;BME280;5553;48.506;8.870;2022-10-23T09:25:20;96275.72;;;18.65;91.71
11001;BME280;5553;48.506;8.870;2022-10-23T09:27:51;96255.97;;;19.10;85.42
11001;BME280;5553;48.506;8.870;2022-10-23T09:30:32;96242.47;;;18.94;82.74
11001;BME280;5553;48.506;8.870;2022-10-23T09:33:13;96252.22;;;17.72;86.68
11001;BME280;5553;48.506;8.870;2022-10-23T09:35:53;96249.78;;;18.60;84.55
11001;BME280;5553;48.506;8.870;2022-10-23T09:38:29;96246.16;;;18.93;84.14
11001;BME280;5553;48.506;8.870;2022-10-23T10:38:17;96272.41;;;18.97;87.90
11001;BME280;5553;48.506;8.870;2022-10-23T10:41:09;96274.22;;;19.45;89.12
11001;BME280;5553;48.506;8.870;2022-10-23T10:46:17;96245.06;;;19.16;81.56
11001;BME280;5553;48.506;8.870;2022-10-23T10:48:56;96250.84;;;18.81;84.06
11001;BME280;5553;48.506;8.870;2022-10-23T10:51:29;96241.41;;;18.74;84.34
11001;BME280;5553;48.506;8.870;2022-10-23T10:54:13;96264.03;;;18.88;88.57
11001;BME280;5553;48.506;8.870;2022-10-23T10:56:46;96236.97;;;18.40;87.69
11001;BME280;5553;48.506;8.870;2022-10-23T10:59:19;96248.84;;;18.50;89.87
11001;BME280;5553;48.506;8.870;2022-10-23T11:01:55;96247.16;;;18.43;90.08
11001;BME280;5553;48.506;8.870;2022-10-23T11:04:31;96243.66;;;18.65;90.11
11001;BME280;5553;48.506;8.870;2022-10-23T11:07:06;96239.94;;;18.66;87.33
11001;BME280;5553;48.506;8.870;2022-10-23T11:09:38;96236.31;;;18.72;86.30
11001;BME280;5553;48.506;8.870;2022-10-23T11:12:14;96224.94;;;18.60;84.73
11001;BME280;5553;48.506;8.870;2022-10-23T11:14:44;96237.22;;;18.83;86.20
11001;BME280;5553;48.506;8.870;2022-10-23T11:17:14;96229.16;;;18.78;85.33
11001;BME280;5553;48.506;8.870;2022-10-23T11:19:48;96218.81;;;19.08;84.50
11001;BME280;5553;48.506;8.870;2022-10-23T11:22:23;96221.31;;;19.20;84.42
11001;BME280;5553;48.506;8.870;2022-10-23T11:25:20;96208.84;;;19.04;84.58
11001;BME280;5553;48.506;8.870;2022-10-23T11:28:05;96213.09;;;19.00;86.90
11001;BME280;5553;48.506;8.870;2022-10-23T11:30:55;96209.97;;;19.08;87.07
11001;BME280;5553;48.506;8.870;2022-10-23T11:33:59;96201.56;;;18.72;86.83
11001;BME280;5553;48.506;8.870;2022-10-23T11:36:40;96197.75;;;18.90;87.67
11001;BME280;5553;48.506;8.870;2022-10-23T11:39:21;96211.03;;;19.07;89.75
11001;BME280;5553;48.506;8.870;2022-10-23T11:41:55;96207.94;;;19.20;90.58
11001;BME280;5553;48.506;8.870;2022-10-23T11:44:27;96203.72;;;19.56;89.64
11001;BME280;5553;48.506;8.870;2022-10-23T13:58:07;96096.56;;;20.31;90.93
11001;BME280;5553;48.506;8.870;2022-10-23T14:00:36;96084.13;;;19.99;91.43
11001;BME280;5553;48.506;8.870;2022-10-23T14:03:07;96084.09;;;19.94;91.82
11001;BME280;5553;48.506;8.870;2022-10-23T14:05:38;96086.22;;;19.87;95.31
11001;BME280;5553;48.506;8.870;2022-10-23T14:08:06;96093.41;;;19.81;99.46
11001;BME280;5553;48.506;8.870;2022-10-23T14:10:34;96077.94;;;19.94;93.76
11001;BME280;5553;48.506;8.870;2022-10-23T14:13:17;96096.13;;;19.92;96.85
11001;BME280;5553;48.506;8.870;2022-10-23T14:15:52;96094.81;;;19.94;96.76
11001;BME280;5553;48.506;8.870;2022-10-23T14:18:20;96115.66;;;19.87;100.00
11001;BME280;5553;48.506;8.870;2022-10-23T14:20:49;96108.91;;;19.79;100.00
11001;BME280;5553;48.506;8.870;2022-10-23T14:23:17;96100.81;;;19.69;100.00
11001;BME280;5553;48.506;8.870;2022-10-23T14:25:45;96103.50;;;19.69;100.00
11001;BME280;5553;48.506;8.870;2022-10-23T14:28:14;96099.25;;;19.73;100.00
11001;BME280;5553;48.506;8.870;2022-10-23T14:30:44;96101.56;;;20.12;100.00
11001;BME280;5553;48.506;8.870;2022-10-23T14:33:13;96096.59;;;19.78;100.00
11001;BME280;5553;48.506;8.870;2022-10-23T14:35:41;96088.09;;;19.86;100.00
11001;BME280;5553;48.506;8.870;2022-10-23T14:38:10;96086.03;;;20.09;100.00
11001;BME280;5553;48.506;8.870;2022-10-23T14:40:38;96087.47;;;20.37;100.00
11001;BME280;5553;48.506;8.870;2022-10-23T14:43:06;96083.31;;;20.87;99.60
11001;BME280;5553;48.506;8.870;2022-10-23T14:45:35;96069.63;;;20.83;97.51
11001;BME280;5553;48.506;8.870;2022-10-23T14:48:06;96080.09;;;21.00;100.00
11001;BME280;5553;48.506;8.870;2022-10-23T14:50:36;96061.59;;;20.89;96.54
11001;BME280;5553;48.506;8.870;2022-10-23T14:53:04;96085.16;;;20.81;100.00
11001;BME280;5553;48.506;8.870;2022-10-23T14:55:33;96077.66;;;20.78;100.00
11001;BME280;5553;48.506;8.870;2022-10-23T14:58:01;96074.47;;;20.87;99.92
11001;BME280;5553;48.506;8.870;2022-10-23T15:00:30;96069.56;;;20.48;100.00
11001;BME280;5553;48.506;8.870;2022-10-23T15:02:58;96074.63;;;20.44;100.00
11001;BME280;5553;48.506;8.870;2022-10-23T15:05:29;96074.06;;;20.37;100.00
11001;BME280;5553;48.506;8.870;2022-10-23T15:07:58;96077.59;;;20.38;100.00
11001;BME280;5553;48.506;8.870;2022-10-23T15:10:26;96067.63;;;20.28;100.00
11001;BME280;5553;48.506;8.870;2022-10-23T15:12:54;96076.16;;;20.15;100.00
11001;BME280;5553;48.506;8.870;2022-10-23T15:15:22;96062.47;;;20.06;100.00
11001;BME280;5553;48.506;8.870;2022-10-23T15:17:51;96054.28;;;19.75;100.00
11001;BME280;5553;48.506;8.870;2022-10-23T15:20:19;96057.91;;;19.54;100.00
11001;BME280;5553;48.506;8.870;2022-10-23T15:22:50;96064.75;;;19.77;100.00
11001;BME280;5553;48.506;8.870;2022-10-23T15:25:18;96057.84;;;19.44;100.00
11001;BME280;5553;48.506;8.870;2022-10-23T15:27:46;96061.81;;;19.36;100.00
11001;BME280;5553;48.506;8.870;2022-10-23T15:30:16;96056.56;;;19.14;100.00
11001;BME280;5553;48.506;8.870;2022-10-23T15:32:45;96038.13;;;19.17;100.00
11001;BME280;5553;48.506;8.870;2022-10-23T15:35:13;96038.56;;;18.99;100.00
11001;BME280;5553;48.506;8.870;2022-10-23T15:37:41;96032.94;;;19.01;100.00
11001;BME280;5553;48.506;8.870;2022-10-23T15:40:12;96032.13;;;18.95;100.00
11001;BME280;5553;48.506;8.870;2022-10-23T15:42:41;96026.34;;;18.76;100.00
11001;BME280;5553;48.506;8.870;2022-10-23T15:45:10;96013.94;;;18.65;100.00
11001;BME280;5553;48.506;8.870;2022-10-23T15:47:40;96019.09;;;18.44;100.00
11001;BME280;5553;48.506;8.870;2022-10-23T15:50:09;96021.09;;;18.32;100.00
11001;BME280;5553;48.506;8.870;2022-10-23T15:52:37;96037.34;;;18.26;100.00
11001;BME280;5553;48.506;8.870;2022-10-23T15:55:06;96047.56;;;18.12;100.00
11001;BME280;5553;48.506;8.870;2022-10-23T15:57:38;96058.47;;;17.83;100.00
11001;BME280;5553;48.506;8.870;2022-10-23T16:00:09;96055.09;;;17.71;100.00
11001;BME280;5553;48.506;8.870;2022-10-23T16:02:39;96062.44;;;17.64;100.00
11001;BME280;5553;48.506;8.870;2022-10-23T16:05:07;96065.69;;;17.66;100.00
11001;BME280;5553;48.506;8.870;2022-10-23T16:07:36;96066.50;;;17.49;100.00
11001;BME280;5553;48.506;8.870;2022-10-23T16:10:05;96061.53;;;17.36;100.00
11001;BME280;5553;48.506;8.870;2022-10-23T16:12:33;96052.09;;;17.12;100.00
11001;BME280;5553;48.506;8.870;2022-10-23T16:15:05;96052.22;;;17.00;100.00
11001;BME280;5553;48.506;8.870;2022-10-23T16:17:34;96046.88;;;17.00;100.00
11001;BME280;5553;48.506;8.870;2022-10-23T16:20:02;96045.91;;;16.89;100.00
11001;BME280;5553;48.506;8.870;2022-10-23T16:22:31;96043.16;;;17.01;100.00
11001;BME280;5553;48.506;8.870;2022-10-23T16:24:59;96047.09;;;16.98;100.00
11001;BME280;5553;48.506;8.870;2022-10-23T16:27:27;96048.81;;;17.04;100.00
11001;BME280;5553;48.506;8.870;2022-10-23T16:29:56;96056.16;;;16.97;100.00
11001;BME280;5553;48.506;8.870;2022-10-23T16:32:26;96061.41;;;16.92;100.00
11001;BME280;5553;48.506;8.870;2022-10-23T16:34:55;96057.63;;;16.59;100.00
11001;BME280;5553;48.506;8.870;2022-10-23T16:37:23;96055.25;;;16.75;100.00
11001;BME280;5553;48.506;8.870;2022-10-23T16:39:51;96056.03;;;16.58;100.00